createdAt,value
2023-05-05T03:51:29.509Z,77.50
2023-05-05T03:56:52.567Z,74.11
2023-05-05T04:02:15.142Z,74.26
2023-05-05T04:07:38.081Z,77.28
2023-05-05T04:16:34.659Z,77.03
2023-05-05T04:21:57.116Z,73.17
2023-05-05T04:27:19.148Z,72.27
2023-05-05T04:32:41.429Z,78.02
2023-05-05T04:38:04.507Z,75.62
2023-05-05T04:43:26.463Z,70.10
2023-05-05T04:48:48.937Z,61.73
2023-05-05T04:54:11.167Z,59.13
2023-05-05T04:59:33.821Z,60.47
2023-05-05T05:04:57.118Z,59.39
2023-05-05T05:10:20.612Z,56.21
2023-05-05T05:15:42.946Z,54.47
2023-05-05T05:21:08.301Z,55.01
2023-05-05T05:26:30.509Z,56.41
2023-05-05T05:31:52.519Z,58.54
2023-05-05T05:37:14.367Z,54.92
2023-05-05T05:42:36.279Z,57.00
2023-05-05T05:47:59.898Z,57.61
2023-05-05T05:53:22.346Z,57.75
2023-05-05T05:58:45.758Z,55.80
2023-05-05T06:04:08.258Z,56.95
2023-05-05T06:09:30.545Z,59.50
2023-05-05T06:14:52.563Z,61.43
2023-05-05T06:20:14.575Z,63.10
2023-05-05T06:25:37.262Z,61.92
2023-05-05T06:30:59.608Z,61.59
2023-05-05T06:36:21.555Z,61.90
2023-05-05T06:41:43.498Z,60.90
2023-05-05T06:47:05.254Z,59.49
2023-05-05T06:52:27.452Z,59.48
2023-05-05T06:57:49.459Z,57.74
2023-05-05T07:03:11.488Z,57.98
2023-05-05T07:08:33.373Z,60.70
2023-05-05T07:13:55.460Z,57.61
2023-05-05T07:19:18.052Z,56.42
2023-05-05T07:24:40.091Z,60.03
2023-05-05T07:30:04.025Z,49.20
2023-05-05T07:35:29.031Z,45.04
2023-05-05T07:40:51.073Z,46.74
2023-05-05T07:46:14.299Z,44.06
2023-05-05T07:51:35.828Z,45.46
2023-05-05T07:56:58.076Z,46.52
2023-05-05T08:02:20.137Z,44.88
2023-05-05T08:07:41.972Z,44.70
2023-05-05T08:13:03.923Z,44.27
2023-05-05T08:18:27.027Z,49.33
2023-05-05T08:23:48.745Z,51.07
2023-05-05T08:29:10.651Z,49.50
2023-05-05T08:34:32.808Z,50.08
2023-05-05T08:39:54.732Z,51.55
2023-05-05T08:45:16.635Z,58.76
2023-05-05T08:50:40.842Z,61.75
2023-05-05T08:56:04.782Z,59.78
2023-05-05T09:01:27.282Z,58.94
2023-05-05T10:59:45.729Z,58.18
2023-05-05T11:05:09.976Z,58.03
2023-05-05T11:10:54.632Z,59.02
2023-05-05T11:16:50.849Z,56.84
2023-05-05T11:22:13.063Z,55.13
2023-05-05T11:28:07.669Z,55.38
2023-05-05T11:33:38.916Z,57.09
2023-05-05T11:39:08.140Z,57.15
2023-05-05T11:44:35.095Z,57.82
2023-05-05T11:49:59.680Z,57.68
2023-05-05T11:55:24.659Z,56.62
2023-05-05T12:00:49.256Z,56.39
2023-05-05T12:06:13.430Z,57.79
2023-05-05T12:11:36.759Z,58.81
2023-05-05T12:17:00.165Z,60.68
2023-05-05T12:22:25.683Z,60.50
2023-05-05T12:27:53.998Z,60.55
2023-05-05T12:33:17.006Z,60.65
2023-05-05T12:38:39.898Z,61.07
2023-05-05T12:44:06.328Z,62.21
2023-05-05T12:49:30.211Z,60.23
2023-05-05T12:55:00.653Z,60.29
2023-05-05T13:00:19.042Z,60.06
2023-05-05T13:05:43.568Z,59.82
2023-05-05T13:11:07.243Z,60.94
2023-05-05T13:16:32.488Z,63.08
2023-05-05T13:21:56.223Z,65.22
2023-05-05T13:27:19.091Z,68.70
2023-05-05T13:32:42.042Z,68.79
2023-05-05T13:38:05.967Z,69.07
2023-05-05T13:43:32.670Z,72.95
2023-05-05T13:48:56.571Z,73.16
2023-05-05T13:54:19.553Z,71.58
2023-05-05T13:59:42.215Z,71.23
2023-05-05T14:05:07.711Z,70.16
2023-05-05T14:10:32.307Z,67.86
2023-05-05T14:15:55.275Z,67.24
2023-05-05T14:21:21.173Z,66.31
2023-05-05T14:26:44.304Z,64.38
2023-05-05T14:32:07.209Z,63.33
2023-05-05T14:37:29.972Z,63.69
2023-05-05T14:42:52.685Z,64.28
2023-05-05T14:48:15.445Z,63.76
2023-05-05T14:53:38.173Z,64.83
2023-05-05T14:59:00.853Z,63.85
2023-05-05T15:04:23.971Z,63.58
2023-05-05T15:09:46.769Z,62.37
2023-05-05T15:15:10.589Z,61.97
2023-05-05T15:20:33.743Z,59.43
2023-05-05T15:25:56.548Z,58.99
2023-05-05T15:31:20.100Z,57.71
2023-05-05T15:36:43.777Z,59.24
2023-05-05T15:42:08.282Z,59.17
2023-05-05T15:47:33.310Z,59.02
2023-05-05T15:52:57.679Z,59.99
2023-05-05T15:58:20.224Z,60.77
2023-05-05T16:03:42.693Z,60.48
2023-05-05T16:09:05.675Z,58.74
2023-05-05T16:14:33.575Z,57.93
2023-05-05T16:19:57.373Z,58.31
2023-05-05T16:25:20.412Z,58.37
2023-05-05T16:30:43.773Z,58.15
2023-05-05T16:36:06.057Z,57.20
2023-05-05T16:41:27.821Z,57.01
2023-05-05T16:46:49.776Z,56.67
2023-05-05T16:52:12.214Z,57.20
2023-05-05T16:57:34.902Z,57.67
2023-05-05T17:02:57.605Z,58.33
2023-05-05T17:08:19.758Z,58.87
2023-05-05T17:13:41.885Z,59.27
2023-05-05T17:19:03.730Z,60.52
2023-05-05T17:24:26.432Z,61.18
2023-05-05T17:29:48.710Z,60.45
2023-05-05T17:35:12.038Z,61.55
2023-05-05T17:40:35.017Z,61.33
2023-05-05T17:45:57.761Z,62.06
2023-05-05T17:51:20.290Z,63.40
2023-05-05T17:56:46.070Z,71.49
2023-05-05T18:02:12.467Z,76.31
2023-05-05T18:07:36.115Z,78.51
2023-05-05T18:12:57.802Z,78.77
2023-05-05T18:18:19.848Z,87.04
2023-05-05T18:23:42.120Z,90.26
2023-05-05T18:29:04.176Z,94.28
2023-05-05T18:34:28.351Z,90.97
2023-05-05T18:39:51.891Z,100.00
2023-05-05T18:45:15.150Z,100.00
2023-05-05T18:50:38.565Z,100.00
2023-05-05T18:56:03.446Z,100.00
2023-05-05T19:01:26.830Z,100.00
2023-05-05T19:06:51.192Z,100.00
2023-05-05T19:12:16.398Z,100.00
2023-05-05T19:17:39.823Z,100.00
2023-05-05T19:23:06.088Z,100.00
2023-05-05T19:28:31.147Z,100.00
2023-05-05T19:34:00.899Z,100.00
2023-05-05T19:39:23.133Z,100.00
2023-05-05T19:44:45.603Z,100.00
2023-05-05T19:50:09.022Z,100.00
2023-05-05T19:55:39.517Z,100.00
2023-05-05T20:01:01.894Z,100.00
2023-05-05T20:06:24.870Z,100.00
2023-05-05T20:11:47.339Z,100.00
2023-05-05T20:17:09.656Z,100.00
2023-05-05T20:22:31.650Z,100.00
2023-05-05T20:27:53.633Z,100.00
2023-05-05T20:33:16.272Z,100.00
2023-05-05T20:38:39.665Z,100.00
2023-05-05T20:44:01.484Z,100.00
2023-05-05T20:49:23.778Z,100.00
2023-05-05T20:54:46.010Z,100.00
2023-05-05T21:00:09.605Z,100.00
2023-05-05T21:05:32.338Z,100.00
2023-05-05T21:10:55.381Z,100.00
2023-05-05T21:16:17.908Z,100.00
2023-05-05T21:22:05.061Z,100.00
2023-05-05T21:27:27.438Z,100.00
2023-05-05T21:32:49.648Z,100.00
2023-05-05T21:38:12.210Z,100.00
2023-05-05T21:43:34.357Z,100.00
2023-05-05T21:48:57.158Z,100.00
2023-05-05T21:54:19.526Z,100.00
2023-05-05T21:59:42.029Z,100.00
2023-05-05T22:05:05.245Z,100.00
2023-05-05T22:10:28.325Z,100.00
2023-05-05T22:15:50.987Z,100.00
2023-05-05T22:21:13.055Z,100.00
2023-05-05T22:26:35.443Z,100.00
2023-05-05T22:31:57.703Z,100.00
2023-05-05T22:37:20.108Z,100.00
2023-05-05T22:42:42.591Z,100.00
2023-05-05T22:48:05.145Z,100.00
2023-05-05T22:53:27.490Z,100.00
2023-05-05T22:58:49.712Z,100.00
2023-05-05T23:04:12.146Z,100.00
2023-05-05T23:09:33.862Z,100.00
2023-05-05T23:14:55.652Z,100.00
2023-05-05T23:20:18.134Z,100.00
2023-05-05T23:25:40.453Z,100.00
2023-05-05T23:31:02.525Z,100.00
2023-05-05T23:36:24.410Z,100.00
2023-05-05T23:41:46.106Z,100.00
2023-05-05T23:47:10.722Z,100.00
2023-05-05T23:52:33.333Z,100.00
2023-05-05T23:57:54.978Z,100.00
